createdAt,value
2022-09-12T00:00:30.270Z,11.99
2022-09-12T00:01:30.274Z,11.97
2022-09-12T00:02:30.255Z,11.93
2022-09-12T00:03:30.217Z,11.97
2022-09-12T00:04:30.203Z,11.93
2022-09-12T00:05:30.187Z,11.91
2022-09-12T00:06:30.173Z,11.88
2022-09-12T00:07:30.155Z,11.85
2022-09-12T00:08:30.141Z,11.81
2022-09-12T00:09:30.121Z,11.85
2022-09-12T00:10:30.109Z,11.93
2022-09-12T00:11:30.094Z,11.88
2022-09-12T00:12:30.077Z,11.83
2022-09-12T00:13:30.058Z,11.85
2022-09-12T00:14:30.044Z,11.70
2022-09-12T00:15:30.029Z,11.76
2022-09-12T00:16:30.055Z,11.70
2022-09-12T00:17:29.996Z,11.71
2022-09-12T00:18:29.981Z,11.70
2022-09-12T00:19:29.966Z,11.71
2022-09-12T00:20:29.949Z,11.74
2022-09-12T00:21:29.931Z,11.67
2022-09-12T00:22:29.918Z,11.71
2022-09-12T00:23:29.901Z,11.70
2022-09-12T00:24:29.888Z,11.70
2022-09-12T00:25:29.868Z,11.60
2022-09-12T00:26:29.855Z,11.59
2022-09-12T00:27:29.837Z,11.68
2022-09-12T00:28:29.822Z,11.62
2022-09-12T00:29:29.820Z,11.56
2022-09-12T00:30:29.790Z,11.56
2022-09-12T00:31:29.812Z,11.62
2022-09-12T00:32:29.760Z,11.56
2022-09-12T00:33:29.741Z,11.48
2022-09-12T00:34:29.727Z,11.53
2022-09-12T00:35:29.711Z,11.51
2022-09-12T00:36:29.697Z,11.45
2022-09-12T00:37:29.679Z,11.40
2022-09-12T00:38:29.663Z,11.48
2022-09-12T00:39:29.649Z,11.41
2022-09-12T00:40:29.633Z,11.37
2022-09-12T00:41:29.614Z,11.45
2022-09-12T00:42:29.600Z,11.38
2022-09-12T00:43:29.582Z,11.48
2022-09-12T00:44:29.570Z,11.49
2022-09-12T00:45:29.621Z,11.48
2022-09-12T00:46:29.537Z,11.44
2022-09-12T00:47:29.522Z,11.31
2022-09-12T00:48:29.504Z,11.33
2022-09-12T00:49:29.491Z,11.49
2022-09-12T00:50:29.473Z,11.48
2022-09-12T00:51:29.457Z,11.53
2022-09-12T00:52:29.443Z,11.44
2022-09-12T00:53:29.422Z,11.37
2022-09-12T00:54:29.407Z,11.40
2022-09-12T00:55:29.393Z,11.43
2022-09-12T00:56:29.378Z,11.34
2022-09-12T00:57:29.363Z,11.38
2022-09-12T00:58:29.347Z,11.38
2022-09-12T00:59:29.329Z,11.38
2022-09-12T01:00:29.313Z,11.34
2022-09-12T01:01:32.412Z,11.43
2022-09-12T01:02:29.279Z,11.35
2022-09-12T01:03:29.264Z,11.38
2022-09-12T01:04:29.248Z,11.43
2022-09-12T01:05:29.231Z,11.34
2022-09-12T01:06:29.215Z,11.41
2022-09-12T01:07:29.200Z,11.38
2022-09-12T01:08:29.187Z,11.43
2022-09-12T01:09:29.169Z,11.37
2022-09-12T01:10:29.153Z,11.33
2022-09-12T01:11:29.135Z,11.34
2022-09-12T01:12:29.121Z,11.35
2022-09-12T01:13:29.207Z,11.34
2022-09-12T01:14:29.086Z,11.34
2022-09-12T01:15:29.074Z,11.27
2022-09-12T01:16:29.092Z,11.25
2022-09-12T01:17:29.144Z,11.26
2022-09-12T01:18:29.023Z,11.25
2022-09-12T01:19:29.007Z,11.15
2022-09-12T01:20:28.992Z,11.30
2022-09-12T01:21:28.975Z,11.22
2022-09-12T01:22:28.970Z,11.18
2022-09-12T01:23:28.943Z,11.18
2022-09-12T01:24:28.929Z,11.16
2022-09-12T01:25:28.909Z,11.19
2022-09-12T01:26:28.898Z,11.20
2022-09-12T01:27:28.878Z,11.19
2022-09-12T01:28:28.864Z,11.23
2022-09-12T01:29:28.846Z,11.13
2022-09-12T01:30:28.833Z,11.08
2022-09-12T01:31:28.814Z,11.15
2022-09-12T01:32:28.835Z,11.12
2022-09-12T01:33:28.786Z,11.10
2022-09-12T01:34:28.769Z,11.07
2022-09-12T01:35:28.749Z,11.02
2022-09-12T01:36:28.735Z,11.07
2022-09-12T01:37:28.718Z,11.02
2022-09-12T01:38:28.701Z,11.12
2022-09-12T01:39:28.685Z,11.08
2022-09-12T01:40:28.669Z,10.98
2022-09-12T01:41:28.653Z,10.90
2022-09-12T01:42:28.637Z,11.01
2022-09-12T01:43:28.622Z,10.95
2022-09-12T01:44:28.604Z,10.97
2022-09-12T01:45:28.628Z,11.00
2022-09-12T01:46:28.575Z,10.97
2022-09-12T01:47:28.555Z,10.83
2022-09-12T01:48:28.544Z,10.92
2022-09-12T01:49:28.523Z,10.89
2022-09-12T01:50:28.510Z,10.89
2022-09-12T01:51:28.490Z,10.89
2022-09-12T01:52:28.475Z,10.92
2022-09-12T01:53:28.458Z,10.89
2022-09-12T01:54:28.446Z,10.90
2022-09-12T01:55:28.425Z,10.89
2022-09-12T01:56:28.411Z,10.86
2022-09-12T01:57:28.392Z,10.83
2022-09-12T01:58:28.378Z,10.72
2022-09-12T01:59:28.362Z,10.79
2022-09-12T02:00:28.347Z,10.80
2022-09-12T02:01:28.375Z,10.76
2022-09-12T02:02:28.381Z,10.77
2022-09-12T02:03:28.295Z,10.76
2022-09-12T02:04:31.112Z,10.76
2022-09-12T02:05:28.263Z,10.76
2022-09-12T02:06:28.248Z,10.71
2022-09-12T02:07:28.231Z,10.69
2022-09-12T02:08:28.216Z,10.69
2022-09-12T02:09:28.200Z,10.69
2022-09-12T02:10:32.251Z,10.69
2022-09-12T02:11:28.171Z,10.72
2022-09-12T02:12:28.151Z,10.69
2022-09-12T02:13:28.136Z,10.75
2022-09-12T02:14:28.118Z,10.68
2022-09-12T02:15:28.102Z,10.72
2022-09-12T02:16:28.135Z,10.67
2022-09-12T02:17:28.067Z,10.68
2022-09-12T02:18:28.051Z,10.71
2022-09-12T02:19:28.035Z,10.68
2022-09-12T02:20:47.035Z,10.75
2022-09-12T02:21:28.003Z,10.69
2022-09-12T02:22:27.989Z,10.69
2022-09-12T02:23:27.970Z,10.72
2022-09-12T02:24:27.955Z,10.67
2022-09-12T02:25:27.957Z,10.69
2022-09-12T02:26:27.922Z,10.69
2022-09-12T02:27:27.904Z,10.72
2022-09-12T02:28:27.891Z,10.76
2022-09-12T02:29:27.871Z,10.67
2022-09-12T02:30:27.882Z,10.72
2022-09-12T02:31:27.838Z,10.75
2022-09-12T02:32:27.825Z,10.69
2022-09-12T02:33:27.812Z,10.67
2022-09-12T02:34:27.791Z,10.69
2022-09-12T02:35:27.774Z,10.69
2022-09-12T02:36:27.760Z,10.76
2022-09-12T02:37:27.742Z,10.75
2022-09-12T02:38:27.724Z,10.67
2022-09-12T02:39:27.709Z,10.71
2022-09-12T02:40:27.696Z,10.72
2022-09-12T02:41:27.673Z,10.72
2022-09-12T02:42:27.662Z,10.64
2022-09-12T02:43:27.643Z,10.67
2022-09-12T02:44:27.629Z,10.62
2022-09-12T02:45:27.653Z,10.68
2022-09-12T02:46:27.594Z,10.65
2022-09-12T02:47:27.578Z,10.69
2022-09-12T02:48:27.561Z,10.71
2022-09-12T02:49:27.543Z,10.79
2022-09-12T02:50:27.527Z,10.72
2022-09-12T02:51:27.510Z,10.77
2022-09-12T02:52:27.496Z,10.79
2022-09-12T02:53:27.481Z,10.71
2022-09-12T02:54:27.464Z,10.68
2022-09-12T02:55:27.449Z,10.75
2022-09-12T02:56:27.430Z,10.67
2022-09-12T02:57:27.411Z,10.67
2022-09-12T02:58:27.396Z,10.64
2022-09-12T02:59:27.379Z,10.67
2022-09-12T03:00:27.369Z,10.69
2022-09-12T03:01:27.383Z,10.65
2022-09-12T03:02:27.369Z,10.71
2022-09-12T03:03:27.315Z,10.69
2022-09-12T03:04:27.300Z,10.69
2022-09-12T03:05:27.282Z,10.67
2022-09-12T03:06:27.263Z,10.69
2022-09-12T03:07:27.249Z,10.62
2022-09-12T03:08:27.232Z,10.68
2022-09-12T03:09:27.217Z,10.62
2022-09-12T03:10:27.202Z,10.61
2022-09-12T03:11:27.181Z,10.67
2022-09-12T03:12:27.168Z,10.59
2022-09-12T03:13:27.149Z,10.61
2022-09-12T03:14:27.135Z,10.64
2022-09-12T03:15:27.116Z,10.58
2022-09-12T03:16:27.140Z,10.59
2022-09-12T03:17:27.085Z,10.58
2022-09-12T03:18:27.069Z,10.51
2022-09-12T03:19:27.051Z,10.58
2022-09-12T03:20:27.036Z,10.53
2022-09-12T03:21:27.016Z,10.55
2022-09-12T03:22:27.004Z,10.59
2022-09-12T03:23:26.985Z,10.57
2022-09-12T03:24:26.970Z,10.59
2022-09-12T03:25:26.958Z,10.58
2022-09-12T03:26:26.936Z,10.51
2022-09-12T03:27:26.921Z,10.49
2022-09-12T03:28:26.904Z,10.48
2022-09-12T03:29:26.887Z,10.45
2022-09-12T03:30:26.895Z,10.42
2022-09-12T03:31:26.856Z,10.46
2022-09-12T03:32:26.839Z,10.46
2022-09-12T03:33:26.819Z,10.45
2022-09-12T03:34:26.801Z,10.39
2022-09-12T03:35:26.790Z,10.46
2022-09-12T03:36:26.771Z,10.48
2022-09-12T03:37:26.754Z,10.39
2022-09-12T03:38:26.735Z,10.43
2022-09-12T03:39:26.723Z,10.41
2022-09-12T03:40:26.706Z,10.38
2022-09-12T03:41:26.688Z,10.42
2022-09-12T03:42:26.672Z,10.39
2022-09-12T03:43:26.657Z,10.45
2022-09-12T03:44:26.639Z,10.30
2022-09-12T03:45:26.668Z,10.33
2022-09-12T03:46:26.606Z,10.41
2022-09-12T03:47:26.596Z,10.30
2022-09-12T03:48:26.572Z,10.31
2022-09-12T03:49:26.555Z,10.24
2022-09-12T03:50:26.538Z,10.24
2022-09-12T03:51:26.525Z,10.23
2022-09-12T03:52:26.508Z,10.23
2022-09-12T03:53:26.495Z,10.31
2022-09-12T03:54:26.472Z,10.17
2022-09-12T03:55:26.457Z,10.17
2022-09-12T03:56:26.448Z,10.13
2022-09-12T03:57:26.425Z,10.12
2022-09-12T03:58:26.406Z,10.18
2022-09-12T03:59:26.393Z,10.20
2022-09-12T04:00:26.377Z,10.20
2022-09-12T04:01:26.442Z,10.07
2022-09-12T04:02:26.358Z,10.15
2022-09-12T04:03:26.326Z,10.17
2022-09-12T04:04:26.308Z,10.15
2022-09-12T04:05:26.294Z,10.15
2022-09-12T04:06:26.275Z,10.17
2022-09-12T04:07:26.260Z,10.17
2022-09-12T04:08:26.242Z,10.18
2022-09-12T04:09:26.226Z,10.13
2022-09-12T04:10:26.207Z,10.12
2022-09-12T04:11:26.192Z,10.13
2022-09-12T04:12:26.174Z,10.10
2022-09-12T04:13:26.159Z,10.17
2022-09-12T04:14:26.142Z,10.03
2022-09-12T04:15:26.133Z,10.03
2022-09-12T04:16:26.132Z,10.07
2022-09-12T04:17:26.092Z,10.05
2022-09-12T04:18:26.077Z,10.07
2022-09-12T04:19:26.070Z,10.02
2022-09-12T04:20:26.058Z,10.09
2022-09-12T04:21:26.025Z,10.02
2022-09-12T04:22:26.009Z,10.00
2022-09-12T04:23:25.991Z,9.99
2022-09-12T04:24:25.977Z,10.02
2022-09-12T04:25:25.963Z,9.99
2022-09-12T04:26:25.942Z,10.02
2022-09-12T04:27:25.926Z,10.02
2022-09-12T04:28:25.908Z,9.97
2022-09-12T04:29:25.895Z,10.02
2022-09-12T04:30:25.902Z,9.99
2022-09-12T04:31:25.866Z,10.03
2022-09-12T04:32:25.842Z,10.02
2022-09-12T04:33:25.825Z,10.03
2022-09-12T04:34:25.812Z,9.92
2022-09-12T04:35:25.792Z,9.99
2022-09-12T04:36:25.775Z,10.00
2022-09-12T04:37:25.757Z,9.99
2022-09-12T04:38:25.747Z,9.97
2022-09-12T04:39:25.727Z,9.97
2022-09-12T04:40:25.711Z,9.91
2022-09-12T04:41:25.700Z,9.99
2022-09-12T04:42:25.674Z,9.97
2022-09-12T04:43:25.660Z,9.91
2022-09-12T04:44:25.641Z,9.97
2022-09-12T04:45:25.626Z,10.02
2022-09-12T04:46:25.607Z,9.94
2022-09-12T04:47:25.590Z,9.90
2022-09-12T04:48:25.578Z,9.90
2022-09-12T04:49:25.557Z,9.91
2022-09-12T04:50:25.542Z,9.92
2022-09-12T04:51:25.524Z,9.95
2022-09-12T04:52:25.507Z,9.90
2022-09-12T04:53:25.494Z,9.90
2022-09-12T04:54:25.474Z,9.95
2022-09-12T04:55:25.459Z,9.97
2022-09-12T04:56:25.444Z,9.97
2022-09-12T04:57:25.425Z,10.05
2022-09-12T04:58:25.411Z,10.00
2022-09-12T04:59:25.398Z,9.97
2022-09-12T05:00:25.377Z,9.99
2022-09-12T05:01:25.395Z,9.99
2022-09-12T05:02:25.409Z,9.99
2022-09-12T05:03:25.327Z,9.95
2022-09-12T05:04:25.305Z,10.06
2022-09-12T05:05:25.291Z,10.05
2022-09-12T05:06:25.272Z,10.02
2022-09-12T05:07:25.256Z,9.99
2022-09-12T05:08:25.239Z,9.99
2022-09-12T05:09:25.225Z,10.03
2022-09-12T05:10:25.205Z,9.94
2022-09-12T05:11:33.012Z,10.02
2022-09-12T05:12:25.170Z,10.00
2022-09-12T05:13:25.157Z,10.05
2022-09-12T05:14:25.136Z,10.06
2022-09-12T05:15:25.126Z,10.03
2022-09-12T05:16:25.138Z,10.05
2022-09-12T05:17:25.094Z,10.03
2022-09-12T05:18:25.071Z,10.00
2022-09-12T05:19:25.059Z,10.07
2022-09-12T05:20:25.040Z,10.07
2022-09-12T05:21:25.022Z,10.02
2022-09-12T05:22:25.006Z,9.97
2022-09-12T05:23:24.988Z,10.05
2022-09-12T05:24:24.974Z,10.05
2022-09-12T05:25:24.958Z,10.03
2022-09-12T05:26:24.939Z,10.07
2022-09-12T05:27:24.925Z,10.09
2022-09-12T05:28:24.902Z,10.09
2022-09-12T05:29:24.888Z,10.10
2022-09-12T05:30:25.003Z,10.06
2022-09-12T05:31:24.857Z,10.15
2022-09-12T05:32:24.837Z,10.13
2022-09-12T05:33:25.270Z,10.10
2022-09-12T05:34:32.470Z,10.12
2022-09-12T05:36:28.764Z,10.17
2022-09-12T05:37:28.745Z,10.17
2022-09-12T05:39:32.698Z,10.18
2022-09-12T05:40:32.664Z,10.15
2022-09-12T05:42:36.630Z,10.27
2022-09-12T05:43:36.601Z,10.36
2022-09-12T05:45:29.663Z,10.31
2022-09-12T05:46:29.463Z,10.34
2022-09-12T05:47:29.443Z,10.41
2022-09-12T05:48:29.432Z,10.36
2022-09-12T05:49:29.412Z,10.43
2022-09-12T05:50:29.395Z,10.49
2022-09-12T05:51:29.398Z,10.45
2022-09-12T05:52:29.360Z,10.51
2022-09-12T05:53:29.344Z,10.53
2022-09-12T05:54:31.700Z,10.57
2022-09-12T05:55:29.311Z,10.67
2022-09-12T05:56:29.298Z,10.71
2022-09-12T05:57:29.278Z,10.69
2022-09-12T05:58:29.261Z,10.72
2022-09-12T05:59:29.247Z,10.76
2022-09-12T06:00:33.297Z,10.87
2022-09-12T06:01:29.232Z,10.90
2022-09-12T06:02:29.294Z,10.95
2022-09-12T06:03:29.182Z,11.00
2022-09-12T06:04:29.170Z,11.08
2022-09-12T06:05:29.147Z,11.07
2022-09-12T06:06:29.130Z,11.19
2022-09-12T06:07:29.115Z,11.26
2022-09-12T06:08:29.099Z,11.27
2022-09-12T06:09:29.084Z,11.38
2022-09-12T06:10:29.065Z,11.43
2022-09-12T06:11:29.048Z,11.52
2022-09-12T06:12:29.034Z,11.48
2022-09-12T06:13:29.015Z,11.67
2022-09-12T06:14:29.001Z,11.67
2022-09-12T06:15:28.983Z,11.70
2022-09-12T06:16:29.007Z,11.80
2022-09-12T06:17:28.949Z,11.80
2022-09-12T06:18:28.936Z,11.89
2022-09-12T06:19:28.920Z,11.91
2022-09-12T06:20:28.907Z,11.91
2022-09-12T06:21:28.890Z,12.07
2022-09-12T06:22:28.870Z,12.10
2022-09-12T06:23:28.855Z,12.10
2022-09-12T06:24:28.839Z,12.18
2022-09-12T06:25:28.822Z,12.23
2022-09-12T06:26:28.811Z,12.32
2022-09-12T06:27:28.789Z,12.36
2022-09-12T06:28:28.775Z,12.50
2022-09-12T06:29:28.757Z,12.63
2022-09-12T06:30:28.844Z,12.63
2022-09-12T06:31:28.726Z,12.61
2022-09-12T06:32:28.711Z,12.66
2022-09-12T06:33:28.695Z,12.81
2022-09-12T06:34:28.680Z,12.83
2022-09-12T06:35:28.661Z,12.90
2022-09-12T06:36:28.648Z,13.01
2022-09-12T06:37:28.631Z,13.09
2022-09-12T06:38:28.616Z,13.16
2022-09-12T06:39:28.599Z,13.27
2022-09-12T06:40:28.587Z,13.26
2022-09-12T06:41:28.570Z,13.33
2022-09-12T06:42:28.555Z,13.57
2022-09-12T06:43:28.536Z,13.55
2022-09-12T06:44:28.523Z,13.64
2022-09-12T06:45:28.507Z,13.70
2022-09-12T06:46:28.495Z,13.82
2022-09-12T06:47:28.479Z,13.89
2022-09-12T06:48:28.463Z,13.94
2022-09-12T06:49:28.446Z,13.98
2022-09-12T06:50:28.431Z,14.07
2022-09-12T06:51:28.415Z,14.08
2022-09-12T06:52:28.402Z,14.07
2022-09-12T06:53:28.383Z,14.05
2022-09-12T06:54:28.369Z,14.12
2022-09-12T06:55:28.355Z,14.04
2022-09-12T06:56:28.339Z,14.04
2022-09-12T06:57:28.333Z,14.19
2022-09-12T06:58:28.320Z,14.26
2022-09-12T06:59:28.292Z,14.25
2022-09-12T07:00:28.282Z,14.26
2022-09-12T07:01:28.317Z,14.34
2022-09-12T07:02:28.289Z,14.33
2022-09-12T07:03:28.232Z,14.49
2022-09-12T07:04:28.218Z,14.48
2022-09-12T07:05:28.201Z,14.48
2022-09-12T07:06:28.189Z,14.48
2022-09-12T07:07:28.171Z,14.55
2022-09-12T07:08:28.161Z,14.53
2022-09-12T07:09:28.144Z,14.56
2022-09-12T07:10:28.131Z,14.62
2022-09-12T07:11:28.112Z,14.62
2022-09-12T07:12:28.099Z,14.70
2022-09-12T07:13:28.088Z,14.77
2022-09-12T07:14:28.070Z,14.92
2022-09-12T07:15:28.054Z,14.79
2022-09-12T07:16:28.116Z,15.00
2022-09-12T07:17:28.069Z,15.04
2022-09-12T07:18:28.013Z,15.04
2022-09-12T07:19:27.998Z,15.05
2022-09-12T07:20:27.982Z,15.23
2022-09-12T07:21:27.967Z,15.27
2022-09-12T07:22:27.956Z,15.27
2022-09-12T07:23:27.937Z,15.29
2022-09-12T07:24:27.922Z,15.35
2022-09-12T07:25:27.905Z,15.39
2022-09-12T07:26:27.897Z,15.44
2022-09-12T07:27:27.882Z,15.55
2022-09-12T07:28:27.864Z,15.55
2022-09-12T07:29:43.133Z,15.65
2022-09-12T07:30:27.854Z,15.70
2022-09-12T07:31:27.821Z,15.75
2022-09-12T07:32:27.805Z,15.83
2022-09-12T07:33:27.792Z,15.99
2022-09-12T07:34:27.776Z,16.12
2022-09-12T07:35:27.768Z,16.25
2022-09-12T07:36:27.751Z,16.43
2022-09-12T07:37:27.738Z,16.50
2022-09-12T07:38:27.722Z,16.65
2022-09-12T07:39:27.712Z,16.76
2022-09-12T07:40:27.693Z,16.82
2022-09-12T07:41:27.680Z,16.97
2022-09-12T07:42:27.664Z,17.10
2022-09-12T07:43:27.686Z,17.22
2022-09-12T07:44:27.637Z,17.31
2022-09-12T07:45:27.626Z,17.46
2022-09-12T07:46:27.614Z,17.59
2022-09-12T07:47:27.599Z,17.79
2022-09-12T07:48:28.523Z,17.97
2022-09-12T07:49:27.571Z,18.09
2022-09-12T07:50:27.557Z,18.36
2022-09-12T07:51:27.547Z,18.48
2022-09-12T07:52:27.530Z,18.58
2022-09-12T07:53:27.519Z,18.70
2022-09-12T07:54:27.507Z,18.71
2022-09-12T07:55:27.497Z,18.89
2022-09-12T07:56:30.513Z,19.00
2022-09-12T07:57:27.468Z,19.04
2022-09-12T07:58:27.455Z,19.16
2022-09-12T07:59:50.831Z,19.20
2022-09-12T08:00:27.432Z,19.38
2022-09-12T08:01:27.506Z,19.42
2022-09-12T08:02:27.450Z,19.49
2022-09-12T08:03:27.394Z,19.48
2022-09-12T08:04:27.385Z,19.66
2022-09-12T08:05:27.371Z,19.62
2022-09-12T08:06:27.358Z,19.79
2022-09-12T08:07:27.348Z,19.84
2022-09-12T08:08:27.336Z,19.90
2022-09-12T08:09:27.325Z,19.97
2022-09-12T08:10:27.311Z,20.12
2022-09-12T08:11:27.300Z,20.18
2022-09-12T08:12:27.291Z,20.32
2022-09-12T08:13:27.278Z,20.33
2022-09-12T08:14:27.268Z,20.55
2022-09-12T08:15:27.400Z,20.53
2022-09-12T08:16:27.244Z,20.66
2022-09-12T08:17:27.233Z,20.64
2022-09-12T08:18:27.222Z,20.73
2022-09-12T08:19:27.213Z,20.80
2022-09-12T08:20:28.455Z,20.88
2022-09-12T08:21:27.189Z,20.88
2022-09-12T08:22:27.180Z,20.98
2022-09-12T08:23:27.169Z,21.04
2022-09-12T08:24:27.157Z,21.07
2022-09-12T08:25:27.151Z,21.23
2022-09-12T08:26:27.157Z,21.25
2022-09-12T08:27:27.127Z,21.30
2022-09-12T08:28:27.116Z,21.50
2022-09-12T08:29:27.108Z,21.60
2022-09-12T08:30:27.105Z,21.70
2022-09-12T08:31:27.093Z,21.80
2022-09-12T08:32:27.079Z,21.97
2022-09-12T08:33:27.072Z,22.01
2022-09-12T08:34:27.060Z,22.10
2022-09-12T08:35:27.048Z,22.26
2022-09-12T08:36:27.041Z,22.36
2022-09-12T08:37:27.028Z,22.37
2022-09-12T08:38:27.021Z,22.53
2022-09-12T08:39:27.013Z,22.59
2022-09-12T08:40:27.000Z,22.74
2022-09-12T08:41:26.993Z,22.81
2022-09-12T08:42:26.982Z,22.96
2022-09-12T08:43:26.988Z,22.92
2022-09-12T08:44:26.969Z,23.01
2022-09-12T08:45:26.963Z,23.13
2022-09-12T08:46:27.037Z,23.28
2022-09-12T08:47:26.949Z,23.36
2022-09-12T08:48:26.929Z,23.34
2022-09-12T08:49:26.979Z,23.39
2022-09-12T08:50:26.915Z,23.55
2022-09-12T08:51:26.907Z,23.56
2022-09-12T08:52:26.895Z,23.58
2022-09-12T08:53:26.888Z,23.69
2022-09-12T08:54:26.877Z,23.74
2022-09-12T08:55:26.877Z,23.69
2022-09-12T08:56:31.469Z,23.82
2022-09-12T08:57:26.853Z,23.92
2022-09-12T08:58:26.847Z,23.89
2022-09-12T08:59:26.839Z,24.04
2022-09-12T09:00:26.835Z,24.03
2022-09-12T09:01:26.862Z,24.07
2022-09-12T09:02:26.860Z,24.26
2022-09-12T09:03:26.806Z,24.44
2022-09-12T09:04:28.737Z,24.46
2022-09-12T09:05:26.787Z,24.59
2022-09-12T09:06:26.780Z,24.84
2022-09-12T09:07:26.777Z,25.03
2022-09-12T09:08:26.768Z,25.21
2022-09-12T09:09:26.757Z,25.37
2022-09-12T09:10:26.750Z,25.46
2022-09-12T09:11:26.741Z,25.44
2022-09-12T09:12:26.745Z,25.62
2022-09-12T09:13:26.725Z,25.76
2022-09-12T09:14:26.716Z,25.85
2022-09-12T09:15:26.771Z,25.92
2022-09-12T09:16:26.729Z,25.99
2022-09-12T09:17:26.696Z,25.99
2022-09-12T09:18:26.688Z,26.01
2022-09-12T09:19:26.685Z,26.03
2022-09-12T09:20:26.675Z,26.04
2022-09-12T09:21:26.675Z,26.13
2022-09-12T09:22:26.659Z,26.26
2022-09-12T09:23:26.654Z,26.36
2022-09-12T09:24:26.646Z,26.59
2022-09-12T09:25:26.647Z,26.81
2022-09-12T09:26:26.681Z,27.18
2022-09-12T09:27:41.832Z,27.45
2022-09-12T09:28:26.622Z,27.73
2022-09-12T09:29:26.613Z,27.86
2022-09-12T09:30:26.608Z,28.10
2022-09-12T09:31:26.633Z,28.34
2022-09-12T09:32:26.596Z,28.56
2022-09-12T09:33:26.592Z,28.67
2022-09-12T09:34:26.584Z,28.75
2022-09-12T09:35:26.577Z,28.86
2022-09-12T09:36:26.574Z,29.03
2022-09-12T09:37:26.564Z,29.06
2022-09-12T09:38:26.557Z,29.15
2022-09-12T09:39:26.557Z,29.16
2022-09-12T09:40:26.551Z,29.25
2022-09-12T09:41:26.545Z,29.27
2022-09-12T09:42:26.545Z,29.40
2022-09-12T09:43:26.533Z,29.49
2022-09-12T09:44:26.528Z,29.43
2022-09-12T09:45:26.521Z,29.31
2022-09-12T09:46:26.586Z,29.16
2022-09-12T09:47:26.512Z,29.10
2022-09-12T09:48:26.513Z,29.16
2022-09-12T09:49:26.499Z,29.25
2022-09-12T09:50:26.496Z,29.40
2022-09-12T09:51:26.494Z,29.58
2022-09-12T09:52:26.489Z,29.79
2022-09-12T09:53:26.481Z,29.90
2022-09-12T09:54:26.475Z,29.95
2022-09-12T09:55:26.471Z,29.98
2022-09-12T09:56:26.467Z,29.99
2022-09-12T09:57:26.463Z,29.99
2022-09-12T09:58:26.459Z,30.03
2022-09-12T09:59:26.457Z,30.29
2022-09-12T10:00:26.450Z,30.33
2022-09-12T10:01:26.454Z,30.32
2022-09-12T10:02:26.492Z,30.13
2022-09-12T10:03:26.439Z,30.02
2022-09-12T10:04:26.433Z,30.02
2022-09-12T10:05:26.429Z,30.03
2022-09-12T10:06:26.430Z,30.06
2022-09-12T10:07:26.419Z,30.10
2022-09-12T10:08:26.417Z,30.08
2022-09-12T10:09:26.411Z,30.03
2022-09-12T10:10:26.406Z,30.05
2022-09-12T10:11:26.402Z,29.89
2022-09-12T10:12:26.395Z,29.89
2022-09-12T10:13:26.395Z,29.99
2022-09-12T10:14:26.391Z,29.99
2022-09-12T10:15:26.383Z,29.95
2022-09-12T10:16:26.378Z,30.03
2022-09-12T10:17:27.923Z,30.08
2022-09-12T10:18:26.369Z,30.23
2022-09-12T10:19:26.367Z,30.32
2022-09-12T10:20:26.410Z,30.36
2022-09-12T10:21:26.361Z,30.52
2022-09-12T10:22:26.354Z,30.58
2022-09-12T10:23:26.367Z,30.67
2022-09-12T10:24:26.346Z,30.56
2022-09-12T10:25:26.491Z,30.54
2022-09-12T10:26:26.337Z,30.55
2022-09-12T10:27:26.334Z,30.56
2022-09-12T10:28:26.336Z,30.55
2022-09-12T10:29:26.323Z,30.67
2022-09-12T10:30:26.409Z,30.70
2022-09-12T10:31:26.315Z,30.76
2022-09-12T10:32:30.513Z,30.98
2022-09-12T10:33:26.314Z,31.05
2022-09-12T10:34:26.307Z,31.05
2022-09-12T10:35:26.302Z,30.77
2022-09-12T10:36:26.338Z,30.52
2022-09-12T10:37:26.307Z,30.32
2022-09-12T10:38:26.288Z,30.11
2022-09-12T10:39:26.320Z,30.05
2022-09-12T10:40:26.395Z,29.92
2022-09-12T10:41:26.276Z,29.80
2022-09-12T10:42:26.304Z,29.67
2022-09-12T10:43:26.428Z,29.57
2022-09-12T10:44:26.270Z,29.31
2022-09-12T10:45:26.256Z,29.35
2022-09-12T10:46:26.303Z,29.21
2022-09-12T10:47:26.251Z,29.15
2022-09-12T10:48:26.243Z,29.18
2022-09-12T10:49:26.241Z,29.28
2022-09-12T10:50:26.231Z,29.32
2022-09-12T10:51:26.243Z,29.57
2022-09-12T10:52:26.226Z,29.77
2022-09-12T10:53:28.903Z,29.94
2022-09-12T10:54:26.215Z,30.06
2022-09-12T10:55:26.210Z,30.35
2022-09-12T10:56:26.212Z,30.67
2022-09-12T10:57:26.202Z,30.77
2022-09-12T10:58:26.195Z,30.92
2022-09-12T10:59:26.191Z,31.04
2022-09-12T11:00:26.189Z,30.91
2022-09-12T11:01:26.241Z,30.76
2022-09-12T11:02:26.235Z,30.54
2022-09-12T11:03:26.176Z,30.35
2022-09-12T11:04:26.176Z,30.06
2022-09-12T11:05:26.233Z,30.02
2022-09-12T11:06:26.160Z,29.98
2022-09-12T11:07:26.242Z,29.94
2022-09-12T11:08:26.153Z,29.86
2022-09-12T11:09:26.193Z,29.92
2022-09-12T11:10:26.437Z,29.92
2022-09-12T11:11:26.141Z,29.92
2022-09-12T11:12:26.137Z,30.01
2022-09-12T11:13:26.136Z,30.05
2022-09-12T11:14:26.185Z,30.23
2022-09-12T11:15:26.120Z,30.32
2022-09-12T11:16:26.115Z,30.52
2022-09-12T11:17:26.115Z,30.54
2022-09-12T11:18:26.119Z,30.49
2022-09-12T11:19:26.105Z,30.61
2022-09-12T11:20:26.097Z,30.55
2022-09-12T11:21:26.097Z,30.55
2022-09-12T11:22:31.085Z,30.51
2022-09-12T11:23:26.117Z,30.73
2022-09-12T11:24:26.228Z,30.89
2022-09-12T11:25:26.079Z,30.89
2022-09-12T11:26:26.073Z,30.93
2022-09-12T11:27:26.068Z,30.99
2022-09-12T11:28:26.103Z,30.78
2022-09-12T11:29:26.711Z,30.67
2022-09-12T11:30:26.056Z,30.43
2022-09-12T11:31:26.051Z,30.01
2022-09-12T11:32:26.047Z,29.81
2022-09-12T11:33:26.046Z,29.61
2022-09-12T11:34:26.039Z,29.30
2022-09-12T11:35:26.036Z,29.05
2022-09-12T11:36:26.028Z,28.86
2022-09-12T11:37:26.023Z,28.72
2022-09-12T11:38:26.018Z,28.59
2022-09-12T11:39:26.012Z,28.50
2022-09-12T11:40:26.722Z,28.46
2022-09-12T11:41:26.003Z,28.56
2022-09-12T11:42:33.727Z,28.62
2022-09-12T11:44:30.467Z,28.97
2022-09-12T11:45:30.442Z,29.22
2022-09-12T11:47:35.915Z,29.59
2022-09-12T11:48:35.954Z,29.58
2022-09-12T11:50:41.385Z,29.35
2022-09-12T11:51:41.373Z,29.15
2022-09-12T11:52:41.354Z,28.97
2022-09-12T11:53:41.350Z,28.74
2022-09-12T11:54:41.343Z,28.53
2022-09-12T11:55:41.342Z,28.49
2022-09-12T11:56:41.343Z,28.20
2022-09-12T11:57:41.330Z,28.15
2022-09-12T11:58:41.402Z,28.03
2022-09-12T11:59:41.320Z,27.91
2022-09-12T12:00:41.312Z,27.79
2022-09-12T12:01:45.014Z,27.53
2022-09-12T12:02:41.320Z,27.50
2022-09-12T12:03:41.328Z,27.38
2022-09-12T12:04:41.285Z,27.23
2022-09-12T12:05:41.281Z,27.23
2022-09-12T12:06:41.283Z,27.20
2022-09-12T12:07:45.458Z,27.19
2022-09-12T12:08:41.413Z,27.15
2022-09-12T12:09:41.256Z,27.18
2022-09-12T12:10:41.250Z,27.37
2022-09-12T12:11:41.250Z,27.53
2022-09-12T12:12:41.364Z,27.66
2022-09-12T12:13:41.230Z,27.64
2022-09-12T12:14:41.226Z,27.63
2022-09-12T12:15:41.273Z,27.67
2022-09-12T12:16:41.212Z,27.88
2022-09-12T12:17:41.208Z,28.13
2022-09-12T12:18:41.205Z,28.46
2022-09-12T12:19:41.195Z,28.70
2022-09-12T12:20:41.188Z,28.70
2022-09-12T12:21:41.188Z,29.16
2022-09-12T12:22:41.177Z,29.57
2022-09-12T12:23:41.174Z,29.95
2022-09-12T12:24:41.165Z,30.44
2022-09-12T12:25:41.817Z,30.78
2022-09-12T12:26:41.157Z,31.37
2022-09-12T12:27:41.200Z,31.78
2022-09-12T12:28:41.145Z,31.97
2022-09-12T12:29:43.822Z,32.27
2022-09-12T12:30:41.135Z,32.42
2022-09-12T12:31:41.132Z,32.56
2022-09-12T12:32:41.154Z,32.59
2022-09-12T12:33:41.126Z,32.53
2022-09-12T12:34:41.121Z,32.49
2022-09-12T12:35:41.117Z,32.35
2022-09-12T12:36:41.122Z,32.07
2022-09-12T12:37:41.108Z,32.00
2022-09-12T12:38:41.106Z,31.98
2022-09-12T12:39:41.148Z,32.01
2022-09-12T12:40:41.128Z,32.12
2022-09-12T12:41:41.096Z,32.42
2022-09-12T12:42:41.102Z,32.46
2022-09-12T12:43:41.090Z,32.53
2022-09-12T12:44:41.089Z,32.37
2022-09-12T12:45:41.083Z,32.04
2022-09-12T12:46:41.131Z,31.64
2022-09-12T12:47:41.075Z,31.41
2022-09-12T12:48:41.069Z,31.39
2022-09-12T12:49:41.067Z,31.44
2022-09-12T12:50:41.062Z,31.64
2022-09-12T12:51:42.746Z,31.93
2022-09-12T12:52:41.055Z,32.09
2022-09-12T12:53:41.056Z,32.17
2022-09-12T12:54:41.050Z,32.17
2022-09-12T12:55:41.048Z,32.09
2022-09-12T12:56:41.044Z,31.85
2022-09-12T12:57:41.736Z,31.62
2022-09-12T12:58:41.036Z,31.26
2022-09-12T12:59:41.105Z,30.88
2022-09-12T13:00:41.027Z,30.76